Time;durP1;ratioP1;P1;durP2;ratioP2;P2;SDS_P1;SDS_P2;PMS_P1;PMS_P2;Temp;Humidity;BMP_temperature;BMP_pressure;BME280_temperature;BME280_humidity;BME280_pressure;Samples;Min_cycle;Max_cycle;Signal;HPM_P1;HPM_P2
2022/09/05 00:01:42;;;;;;;3.65;3.45;;;21.70;71.30;;;;;;5095877;28;20213;-87
2022/09/05 00:04:31;;;;;;;5.78;4.07;;;21.80;71.00;;;;;;5094622;28;20184;-86
2022/09/05 00:07:32;;;;;;;4.97;3.88;;;21.70;71.20;;;;;;5095107;28;20183;-85
2022/09/05 00:10:22;;;;;;;4.22;3.83;;;21.30;72.90;;;;;;5097884;28;20180;-86
2022/09/05 00:12:50;;;;;;;3.75;3.50;;;21.20;73.70;;;;;;5097948;28;20207;-86
2022/09/05 00:15:37;;;;;;;4.20;3.90;;;21.20;73.30;;;;;;5098465;28;20202;-88
2022/09/05 00:18:24;;;;;;;4.13;3.70;;;21.20;73.40;;;;;;5095713;28;20182;-86
2022/09/05 00:21:28;;;;;;;4.20;3.75;;;21.20;73.30;;;;;;5090787;28;20179;-87
2022/09/05 00:24:25;;;;;;;4.38;4.00;;;21.20;73.70;;;;;;5093105;28;20199;-86
2022/09/05 00:27:05;;;;;;;4.03;3.55;;;21.20;73.70;;;;;;5088117;28;20170;-86
2022/09/05 00:29:37;;;;;;;4.65;4.15;;;21.10;74.10;;;;;;5097887;28;20247;-88
2022/09/05 00:32:25;;;;;;;4.32;4.00;;;21.00;74.70;;;;;;5090797;28;20183;-88
2022/09/05 00:35:05;;;;;;;4.00;3.70;;;21.00;74.60;;;;;;5090582;28;20206;-87
2022/09/05 00:37:37;;;;;;;5.13;3.85;;;21.00;74.50;;;;;;5092872;28;20198;-85
2022/09/05 00:40:32;;;;;;;4.03;3.72;;;20.70;75.00;;;;;;5091782;28;20183;-84
2022/09/05 00:43:03;;;;;;;3.92;3.63;;;20.80;75.20;;;;;;5088176;28;20174;-86
2022/09/05 00:45:42;;;;;;;3.92;3.72;;;20.70;75.60;;;;;;5092837;28;20227;-88
2022/09/05 00:48:14;;;;;;;4.72;3.67;;;20.70;75.70;;;;;;5092629;28;20201;-86
2022/09/05 00:50:42;;;;;;;4.32;3.92;;;20.70;75.70;;;;;;5091835;28;20189;-88
2022/09/05 00:53:18;;;;;;;5.00;3.50;;;20.50;76.40;;;;;;5098011;28;20183;-86
2022/09/05 00:55:53;;;;;;;6.63;3.38;;;20.40;77.30;;;;;;5096070;28;20213;-86
2022/09/05 00:58:51;;;;;;;4.22;3.70;;;20.10;78.50;;;;;;5100916;28;20181;-86
2022/09/05 01:01:42;;;;;;;4.47;4.18;;;20.20;78.90;;;;;;5095237;28;20204;-87
2022/09/05 01:04:42;;;;;;;4.00;3.50;;;20.00;79.90;;;;;;5089146;28;20246;-87
2022/09/05 01:07:08;;;;;;;5.43;4.10;;;20.00;80.00;;;;;;5093835;28;20195;-86
2022/09/05 01:10:11;;;;;;;4.43;4.03;;;20.10;79.80;;;;;;5103856;22;20886;-84
2022/09/05 01:13:07;;;;;;;3.88;3.60;;;20.10;79.90;;;;;;5083239;28;20185;-84
2022/09/05 01:16:08;;;;;;;3.83;3.60;;;20.10;79.30;;;;;;5083717;28;20307;-83
2022/09/05 01:19:04;;;;;;;3.90;3.60;;;20.20;78.30;;;;;;5042140;28;20345;-84
2022/09/05 01:21:41;;;;;;;3.80;3.50;;;20.30;78.10;;;;;;5083102;28;20198;-84
2022/09/05 01:24:45;;;;;;;4.05;3.70;;;20.30;77.30;;;;;;5080592;28;20662;-85
2022/09/05 01:27:32;;;;;;;4.30;3.90;;;20.30;77.10;;;;;;5087697;28;20267;-84
2022/09/05 01:30:47;;;;;;;4.20;3.90;;;20.40;76.50;;;;;;5082536;28;20350;-84
2022/09/05 01:33:27;;;;;;;3.78;3.42;;;20.40;76.50;;;;;;5024995;28;20559;-85
2022/09/05 01:36:07;;;;;;;6.30;3.63;;;20.50;76.60;;;;;;5096926;28;20332;-86
2022/09/05 01:39:04;;;;;;;4.28;3.45;;;20.40;76.50;;;;;;5094351;28;20175;-87
2022/09/05 01:41:52;;;;;;;3.88;3.50;;;20.50;75.70;;;;;;5082551;28;20551;-86
2022/09/05 01:44:46;;;;;;;3.67;3.47;;;20.40;75.90;;;;;;5090263;28;20194;-87
2022/09/05 01:47:39;;;;;;;3.85;3.55;;;20.40;76.40;;;;;;5093247;28;20197;-87
2022/09/05 01:50:16;;;;;;;3.85;3.55;;;20.40;76.60;;;;;;5093157;28;20239;-86
2022/09/05 01:53:04;;;;;;;3.63;3.33;;;20.20;77.40;;;;;;5104854;28;20189;-86
2022/09/05 01:55:52;;;;;;;3.85;3.45;;;20.10;77.60;;;;;;5079928;28;20210;-86
2022/09/05 01:58:50;;;;;;;3.80;3.60;;;20.20;77.70;;;;;;5081292;28;20206;-86
2022/09/05 02:01:47;;;;;;;4.65;3.65;;;20.20;77.00;;;;;;5086542;28;20176;-86
2022/09/05 02:04:47;;;;;;;3.80;3.60;;;20.20;77.40;;;;;;5084415;28;20178;-86
2022/09/05 02:07:21;;;;;;;4.00;3.72;;;20.20;76.90;;;;;;5086222;28;20183;-86
2022/09/05 02:09:59;;;;;;;3.97;3.67;;;20.30;76.70;;;;;;5083508;28;20279;-86
2022/09/05 02:12:48;;;;;;;3.83;3.50;;;20.10;77.30;;;;;;5085087;28;20209;-86
2022/09/05 02:15:29;;;;;;;4.63;3.97;;;20.00;77.30;;;;;;5095170;28;20238;-86
2022/09/05 02:17:57;;;;;;;3.78;3.40;;;20.00;77.60;;;;;;5086784;28;20208;-86
2022/09/05 02:20:46;;;;;;;4.07;3.70;;;20.10;77.70;;;;;;5085254;28;20668;-86
2022/09/05 02:23:18;;;;;;;3.63;3.30;;;20.00;77.40;;;;;;5086706;28;20183;-86
2022/09/05 02:25:56;;;;;;;4.10;3.78;;;19.90;78.50;;;;;;5093576;28;20213;-86
2022/09/05 02:28:41;;;;;;;3.75;3.55;;;19.90;78.40;;;;;;5084327;28;20208;-86
2022/09/05 02:31:33;;;;;;;6.68;3.83;;;19.80;78.40;;;;;;5085266;28;20602;-86
2022/09/05 02:34:26;;;;;;;4.25;3.92;;;19.80;79.70;;;;;;5082597;28;20221;-86
2022/09/05 02:37:20;;;;;;;4.70;4.30;;;19.80;79.20;;;;;;5084031;28;20740;-86
2022/09/05 02:40:09;;;;;;;4.10;3.75;;;19.80;80.70;;;;;;5086448;28;20186;-85
2022/09/05 02:42:55;;;;;;;4.15;3.85;;;19.80;80.10;;;;;;5065044;28;20195;-86
2022/09/05 02:45:38;;;;;;;4.15;3.75;;;19.80;79.70;;;;;;5087606;28;20649;-86
2022/09/05 02:48:38;;;;;;;4.50;3.60;;;19.80;79.70;;;;;;5100381;28;20560;-86
2022/09/05 02:51:18;;;;;;;4.13;3.78;;;19.80;79.80;;;;;;5088391;28;20174;-86
2022/09/05 02:53:52;;;;;;;4.13;3.83;;;19.90;80.50;;;;;;5105839;28;20171;-86
2022/09/05 02:56:33;;;;;;;4.35;3.95;;;19.80;80.40;;;;;;5086155;28;20210;-86
2022/09/05 02:59:26;;;;;;;4.70;4.28;;;19.70;81.30;;;;;;5089092;28;20170;-86
2022/09/05 03:02:09;;;;;;;5.70;4.40;;;19.80;80.50;;;;;;5085468;28;20187;-86
2022/09/05 03:04:51;;;;;;;4.55;4.15;;;19.80;81.20;;;;;;5087287;28;20264;-86
2022/09/05 03:07:59;;;;;;;3.80;3.50;;;19.80;81.90;;;;;;5089677;28;20185;-86
2022/09/05 03:10:59;;;;;;;3.85;3.63;;;19.80;80.50;;;;;;5083175;28;20196;-86
2022/09/05 03:13:44;;;;;;;5.57;3.83;;;19.80;80.40;;;;;;5087520;28;20169;-86
2022/09/05 03:16:42;;;;;;;4.05;3.75;;;19.80;80.40;;;;;;5087479;28;20242;-86
2022/09/05 03:19:14;;;;;;;4.15;3.75;;;19.90;79.00;;;;;;5087365;28;20181;-86
2022/09/05 03:21:46;;;;;;;5.35;4.10;;;19.80;79.00;;;;;;5087036;28;20737;-86
2022/09/05 03:24:49;;;;;;;4.75;3.97;;;19.80;78.80;;;;;;5094642;28;20412;-86
2022/09/05 03:27:36;;;;;;;5.60;4.03;;;19.70;79.70;;;;;;5084562;28;20189;-86
2022/09/05 03:30:08;;;;;;;4.45;4.05;;;19.70;80.70;;;;;;5087719;28;20177;-86
2022/09/05 03:33:01;;;;;;;4.38;4.07;;;19.60;81.40;;;;;;5081698;28;20180;-86
2022/09/05 03:36:04;;;;;;;4.53;4.22;;;19.70;81.00;;;;;;5086029;28;20633;-86
2022/09/05 03:38:48;;;;;;;4.88;4.32;;;19.80;80.90;;;;;;5082845;28;20180;-86
2022/09/05 03:41:20;;;;;;;4.38;4.05;;;19.80;80.50;;;;;;5083674;28;20178;-86
2022/09/05 03:44:23;;;;;;;4.88;3.92;;;19.80;80.30;;;;;;5091132;28;20187;-86
2022/09/05 03:47:20;;;;;;;4.30;4.00;;;19.80;79.70;;;;;;5077015;28;20609;-85
2022/09/05 03:50:22;;;;;;;4.65;4.25;;;19.80;79.70;;;;;;5089986;28;20183;-86
2022/09/05 03:53:21;;;;;;;4.10;3.80;;;19.80;79.90;;;;;;5087283;28;20194;-86
2022/09/05 03:56:04;;;;;;;4.57;4.13;;;19.80;80.00;;;;;;5084228;28;20244;-85
2022/09/05 03:58:57;;;;;;;4.10;3.80;;;19.70;79.50;;;;;;5084045;28;20271;-85
2022/09/05 04:01:37;;;;;;;8.55;4.35;;;19.70;80.00;;;;;;5090500;28;20605;-86
2022/09/05 04:04:26;;;;;;;8.18;4.45;;;19.70;79.60;;;;;;5086601;28;20178;-86
2022/09/05 04:07:05;;;;;;;4.50;4.10;;;19.50;80.20;;;;;;5083785;28;20189;-86
2022/09/05 04:10:00;;;;;;;6.32;4.07;;;19.30;81.20;;;;;;5085559;28;20196;-86
2022/09/05 04:12:46;;;;;;;5.40;4.22;;;19.10;82.70;;;;;;5085534;28;20602;-85
2022/09/05 04:15:32;;;;;;;4.25;3.88;;;19.20;82.80;;;;;;5084209;28;20203;-86
2022/09/05 04:18:17;;;;;;;4.78;4.47;;;19.30;82.90;;;;;;5086211;28;20185;-86
2022/09/05 04:21:05;;;;;;;4.88;4.38;;;19.40;82.50;;;;;;5069830;28;20254;-85
2022/09/05 04:23:40;;;;;;;4.43;4.13;;;19.20;82.20;;;;;;5086824;28;20175;-86
2022/09/05 04:26:23;;;;;;;4.68;4.38;;;19.10;81.80;;;;;;5103486;28;20201;-86
2022/09/05 04:29:13;;;;;;;6.53;4.50;;;19.00;82.30;;;;;;5091208;28;20210;-87
2022/09/05 04:32:14;;;;;;;5.13;4.10;;;18.90;84.10;;;;;;5088123;28;20177;-86
2022/09/05 04:35:20;;;;;;;4.82;4.32;;;18.90;84.10;;;;;;5078175;28;20271;-87
2022/09/05 04:37:53;;;;;;;4.72;4.22;;;19.00;83.80;;;;;;5086849;28;20186;-87
2022/09/05 04:40:59;;;;;;;5.03;4.50;;;19.10;83.20;;;;;;5092550;28;20196;-87
2022/09/05 04:43:51;;;;;;;4.60;4.22;;;19.20;82.60;;;;;;5077881;28;20168;-86
2022/09/05 04:46:30;;;;;;;4.50;4.20;;;19.30;83.10;;;;;;5096781;28;20212;-86
2022/09/05 04:49:13;;;;;;;3.92;3.60;;;19.20;82.50;;;;;;5094551;28;20191;-85
2022/09/05 04:52:09;;;;;;;5.05;4.60;;;19.20;81.80;;;;;;5083366;28;20195;-86
2022/09/05 04:54:41;;;;;;;4.57;4.18;;;19.30;82.30;;;;;;5086001;28;20181;-86
2022/09/05 04:57:06;;;;;;;4.85;4.45;;;19.20;82.30;;;;;;5087854;28;20183;-86
2022/09/05 04:59:48;;;;;;;4.82;4.40;;;19.30;82.10;;;;;;5087663;28;20230;-87
2022/09/05 05:02:36;;;;;;;4.30;4.00;;;19.30;81.70;;;;;;5095470;28;20184;-87
2022/09/05 05:05:30;;;;;;;4.85;4.45;;;19.40;81.50;;;;;;5096281;28;20211;-86
2022/09/05 05:07:56;;;;;;;5.05;4.55;;;19.40;81.50;;;;;;5082501;28;20209;-86
2022/09/05 05:10:30;;;;;;;7.07;4.38;;;19.30;81.90;;;;;;5087808;28;20554;-87
2022/09/05 05:13:04;;;;;;;4.80;4.25;;;19.30;82.20;;;;;;5080485;28;20210;-86
2022/09/05 05:15:32;;;;;;;7.90;4.97;;;19.40;82.10;;;;;;5087692;28;20311;-86
2022/09/05 05:18:02;;;;;;;5.28;4.78;;;19.40;83.00;;;;;;5087223;28;20197;-86
2022/09/05 05:20:49;;;;;;;5.55;5.03;;;19.40;83.80;;;;;;5084089;28;20179;-86
2022/09/05 05:23:17;;;;;;;5.25;4.53;;;19.50;83.80;;;;;;5080486;28;20205;-86
2022/09/05 05:25:43;;;;;;;5.53;4.68;;;19.40;83.60;;;;;;5081867;28;20288;-86
2022/09/05 05:28:19;;;;;;;7.53;4.72;;;19.50;83.70;;;;;;5081930;28;20186;-86
2022/09/05 05:30:45;;;;;;;6.05;5.45;;;19.50;83.40;;;;;;5082645;28;20183;-87
2022/09/05 05:33:27;;;;;;;6.20;4.53;;;19.50;83.70;;;;;;5085473;28;20192;-87
2022/09/05 05:35:57;;;;;;;5.47;4.32;;;19.60;83.60;;;;;;5081252;28;20223;-87
2022/09/05 05:38:48;;;;;;;8.38;5.45;;;19.70;83.50;;;;;;5082787;28;20179;-87
2022/09/05 05:41:36;;;;;;;5.80;4.75;;;19.70;83.60;;;;;;5083357;28;20669;-86
2022/09/05 05:44:14;;;;;;;7.57;5.28;;;19.60;84.40;;;;;;5087432;28;20183;-86
2022/09/05 05:47:02;;;;;;;5.13;4.70;;;19.50;85.50;;;;;;5081443;28;20266;-86
2022/09/05 05:49:49;;;;;;;6.53;4.50;;;19.50;85.40;;;;;;5083679;28;20267;-87
2022/09/05 05:52:44;;;;;;;7.20;5.00;;;19.60;85.50;;;;;;5081283;28;20197;-86
2022/09/05 05:55:21;;;;;;;6.68;6.05;;;19.50;88.20;;;;;;5063461;28;20275;-87
2022/09/05 05:58:24;;;;;;;5.72;5.00;;;19.30;89.10;;;;;;5082575;28;20174;-86
2022/09/05 06:01:05;;;;;;;5.57;5.07;;;19.40;88.80;;;;;;5083470;28;20187;-86
2022/09/05 06:04:28;;;;;;;6.00;5.40;;;19.50;89.30;;;;;;5079513;28;20182;-87
2022/09/05 06:07:29;;;;;;;12.20;5.05;;;19.50;89.30;;;;;;5020797;28;20279;-87
2022/09/05 06:10:06;;;;;;;5.85;5.07;;;19.60;90.10;;;;;;4948792;29;20310;-87
2022/09/05 06:13:04;;;;;;;5.07;4.65;;;19.50;89.30;;;;;;5069852;28;20598;-87
2022/09/05 06:15:54;;;;;;;5.65;5.20;;;19.60;89.20;;;;;;5009472;28;20250;-87
2022/09/05 06:18:55;;;;;;;5.30;4.93;;;19.70;89.30;;;;;;5084925;28;20183;-86
2022/09/05 06:21:50;;;;;;;6.80;5.28;;;19.70;89.30;;;;;;5064114;28;20691;-86
2022/09/05 06:24:56;;;;;;;7.65;6.20;;;19.70;89.80;;;;;;5099291;28;20593;-86
2022/09/05 06:27:34;;;;;;;5.47;5.00;;;19.70;90.10;;;;;;5056831;28;20212;-85
2022/09/05 06:30:38;;;;;;;6.43;5.20;;;19.70;90.40;;;;;;5089103;28;20204;-86
2022/09/05 06:33:56;;;;;;;5.47;5.07;;;19.70;89.90;;;;;;5063793;28;20202;-86
2022/09/05 06:36:31;;;;;;;5.43;5.03;;;19.60;90.70;;;;;;5089024;28;20210;-87
2022/09/05 06:39:34;;;;;;;5.10;4.70;;;19.60;90.70;;;;;;5106370;28;20185;-87
2022/09/05 06:42:30;;;;;;;9.05;5.00;;;19.60;90.10;;;;;;5084490;28;20210;-86
2022/09/05 06:45:10;;;;;;;6.65;6.05;;;19.80;90.30;;;;;;5085192;28;20208;-87
2022/09/05 06:47:39;;;;;;;5.88;5.35;;;19.70;90.00;;;;;;5091260;28;20200;-87
2022/09/05 06:50:11;;;;;;;5.43;4.95;;;19.90;90.30;;;;;;5086616;28;20189;-84
2022/09/05 06:53:25;;;;;;;5.55;5.05;;;19.90;88.70;;;;;;5086370;28;20693;-85
2022/09/05 06:55:58;;;;;;;5.47;5.07;;;20.00;87.90;;;;;;5083103;28;20471;-87
2022/09/05 06:58:33;;;;;;;5.82;5.32;;;20.00;87.80;;;;;;5083458;28;20190;-87
2022/09/05 07:01:00;;;;;;;6.70;5.30;;;20.00;88.10;;;;;;5078928;28;20171;-87
2022/09/05 07:04:03;;;;;;;5.88;5.38;;;20.00;88.80;;;;;;5086228;28;20497;-87
2022/09/05 07:06:59;;;;;;;5.70;5.20;;;19.90;89.60;;;;;;5085854;28;20232;-87
2022/09/05 07:09:30;;;;;;;5.22;4.72;;;19.90;89.60;;;;;;5086916;28;20593;-87
2022/09/05 07:12:08;;;;;;;5.55;5.05;;;20.00;89.60;;;;;;5086371;28;20185;-88
2022/09/05 07:14:46;;;;;;;5.60;5.20;;;20.00;89.30;;;;;;5101106;28;20194;-87
2022/09/05 07:17:33;;;;;;;5.88;5.30;;;20.10;89.40;;;;;;5084284;28;20289;-87
2022/09/05 07:20:01;;;;;;;6.90;5.00;;;20.20;88.90;;;;;;5084848;28;20217;-87
2022/09/05 07:22:40;;;;;;;6.75;5.68;;;20.20;89.10;;;;;;5088656;28;20966;-88
2022/09/05 07:25:14;;;;;;;4.90;4.60;;;20.20;89.90;;;;;;5085878;28;20210;-87
2022/09/05 07:27:44;;;;;;;7.80;5.80;;;20.10;90.70;;;;;;5084854;28;20716;-87
2022/09/05 07:30:12;;;;;;;6.18;5.68;;;20.20;89.90;;;;;;5084970;28;20273;-87
2022/09/05 07:32:45;;;;;;;7.43;5.90;;;20.20;88.20;;;;;;5085422;28;20196;-87
2022/09/05 07:35:20;;;;;;;7.07;6.43;;;20.20;87.20;;;;;;5078241;28;20208;-87
2022/09/05 07:38:00;;;;;;;6.30;5.80;;;20.10;89.40;;;;;;5080809;28;20186;-87
2022/09/05 07:40:28;;;;;;;6.78;6.18;;;20.10;89.60;;;;;;5081387;28;20269;-87
2022/09/05 07:43:06;;;;;;;8.20;6.88;;;19.90;89.90;;;;;;5083484;28;20614;-87
2022/09/05 07:45:36;;;;;;;8.10;6.07;;;20.00;89.40;;;;;;5084401;28;20217;-87
2022/09/05 07:48:10;;;;;;;6.97;6.20;;;20.10;87.60;;;;;;5086104;28;20679;-86
2022/09/05 07:50:49;;;;;;;7.30;6.50;;;20.00;85.90;;;;;;5078602;28;20210;-86
2022/09/05 07:53:16;;;;;;;6.68;6.18;;;20.10;86.70;;;;;;5082322;28;20575;-86
2022/09/05 07:55:43;;;;;;;6.82;6.32;;;20.10;87.60;;;;;;5081176;28;20216;-86
2022/09/05 07:58:14;;;;;;;7.05;6.38;;;20.10;87.60;;;;;;5084229;28;20180;-86
2022/09/05 08:00:42;;;;;;;7.70;7.00;;;20.20;87.00;;;;;;5086722;28;20207;-87
2022/09/05 08:03:11;;;;;;;7.00;6.30;;;20.30;87.80;;;;;;5083054;28;20190;-86
2022/09/05 08:05:45;;;;;;;6.63;6.07;;;20.40;88.10;;;;;;5081155;28;20207;-87
2022/09/05 08:08:37;;;;;;;7.07;6.38;;;20.60;88.50;;;;;;5083925;28;20232;-87
2022/09/05 08:11:10;;;;;;;7.30;6.63;;;20.70;87.20;;;;;;5094523;28;20179;-87
2022/09/05 08:13:41;;;;;;;6.95;6.20;;;20.50;86.80;;;;;;5084242;28;20182;-87
2022/09/05 08:16:10;;;;;;;6.97;6.47;;;20.60;85.90;;;;;;5080674;28;20242;-87
2022/09/05 08:18:39;;;;;;;6.47;5.97;;;20.60;86.70;;;;;;5079850;28;20259;-86
2022/09/05 08:21:12;;;;;;;8.80;5.88;;;20.90;85.20;;;;;;5082733;28;20179;-87
2022/09/05 08:24:08;;;;;;;7.20;6.43;;;21.20;83.00;;;;;;5085700;28;20663;-87
2022/09/05 08:27:01;;;;;;;5.97;5.47;;;21.40;82.20;;;;;;5082411;28;20203;-85
2022/09/05 08:29:38;;;;;;;6.55;5.95;;;21.60;80.40;;;;;;5082485;28;20698;-87
2022/09/05 08:32:12;;;;;;;5.95;5.45;;;21.60;80.40;;;;;;5080066;28;20198;-87
2022/09/05 08:34:49;;;;;;;7.00;6.00;;;21.60;80.30;;;;;;5079913;28;20213;-86
2022/09/05 08:37:21;;;;;;;6.40;5.65;;;21.80;79.60;;;;;;5084010;28;20183;-87
2022/09/05 08:39:53;;;;;;;5.70;5.20;;;21.90;77.00;;;;;;5082441;28;20172;-87
2022/09/05 08:42:28;;;;;;;5.68;5.28;;;22.10;77.10;;;;;;5083204;28;20175;-86
2022/09/05 08:45:20;;;;;;;6.03;5.50;;;22.30;76.30;;;;;;5081381;28;20682;-86
2022/09/05 08:48:11;;;;;;;5.95;5.50;;;22.40;75.40;;;;;;5095824;28;20198;-86
2022/09/05 08:51:01;;;;;;;6.50;6.00;;;22.60;75.70;;;;;;5083012;28;20225;-87
2022/09/05 08:53:35;;;;;;;6.22;5.70;;;22.60;77.60;;;;;;5081697;28;20187;-87
2022/09/05 08:56:09;;;;;;;6.18;5.15;;;22.60;75.90;;;;;;5080980;28;20213;-87
2022/09/05 08:58:55;;;;;;;5.70;5.28;;;22.80;75.10;;;;;;5063986;28;20217;-87
2022/09/05 09:01:21;;;;;;;6.05;5.40;;;23.00;74.20;;;;;;5087175;28;20187;-87
2022/09/05 09:04:09;;;;;;;8.75;5.53;;;23.20;72.60;;;;;;5084623;28;20701;-87
2022/09/05 09:07:25;;;;;;;5.80;5.30;;;23.40;72.30;;;;;;5081434;28;20257;-87
2022/09/05 09:10:14;;;;;;;5.43;4.90;;;23.50;71.30;;;;;;5060711;28;20230;-86
2022/09/05 09:13:17;;;;;;;5.50;4.97;;;23.70;70.60;;;;;;5080240;28;20549;-87
2022/09/05 09:15:55;;;;;;;5.35;4.95;;;23.90;71.40;;;;;;5078243;28;20226;-87
2022/09/05 09:18:36;;;;;;;5.25;4.80;;;24.10;69.80;;;;;;5083028;28;20175;-86
2022/09/05 09:21:27;;;;;;;5.70;5.30;;;24.20;69.00;;;;;;5081823;28;20171;-85
2022/09/05 09:23:59;;;;;;;5.60;5.20;;;24.20;67.80;;;;;;5089156;28;20219;-85
2022/09/05 09:26:56;;;;;;;5.07;4.68;;;24.40;66.70;;;;;;5085206;28;20312;-85
2022/09/05 09:29:22;;;;;;;6.47;5.13;;;24.70;65.90;;;;;;5069163;28;20293;-85
2022/09/05 09:32:12;;;;;;;6.15;5.47;;;24.90;64.10;;;;;;5079842;28;20266;-85
2022/09/05 09:35:13;;;;;;;5.47;4.93;;;25.10;64.70;;;;;;5078688;28;20739;-86
2022/09/05 09:37:51;;;;;;;5.25;4.95;;;25.20;62.30;;;;;;5076285;28;20195;-86
2022/09/05 09:41:04;;;;;;;5.18;4.78;;;25.40;62.70;;;;;;5082268;28;20183;-85
2022/09/05 09:43:45;;;;;;;5.82;5.32;;;25.50;60.60;;;;;;5077276;28;20761;-86
2022/09/05 09:46:17;;;;;;;5.80;5.30;;;25.40;62.20;;;;;;5078765;28;20238;-86
2022/09/05 09:48:43;;;;;;;5.53;5.13;;;25.30;62.30;;;;;;5087220;28;20178;-86
2022/09/05 09:51:18;;;;;;;5.75;5.35;;;25.80;59.70;;;;;;5080435;28;20183;-86
2022/09/05 09:53:53;;;;;;;6.32;5.22;;;26.00;59.40;;;;;;5082953;28;20191;-86
2022/09/05 09:56:55;;;;;;;5.70;5.20;;;25.90;59.50;;;;;;5082331;28;20237;-86
2022/09/05 09:59:50;;;;;;;5.88;5.05;;;25.90;59.30;;;;;;5086671;28;20382;-86
2022/09/05 10:02:55;;;;;;;5.70;5.20;;;26.40;58.50;;;;;;5084434;28;20205;-87
2022/09/05 10:06:15;;;;;;;5.43;5.03;;;26.70;55.90;;;;;;5081631;28;20206;-86
2022/09/05 10:09:02;;;;;;;6.55;5.25;;;27.00;54.10;;;;;;5042279;28;20280;-86
2022/09/05 10:11:42;;;;;;;5.40;4.88;;;27.10;53.10;;;;;;5082055;28;20179;-87
2022/09/05 10:14:16;;;;;;;5.30;4.80;;;27.20;53.70;;;;;;5085353;28;20174;-86
2022/09/05 10:17:02;;;;;;;5.43;4.90;;;27.00;54.00;;;;;;5078696;28;20221;-87
2022/09/05 10:19:49;;;;;;;5.50;5.10;;;27.50;51.90;;;;;;5083324;28;20171;-86
2022/09/05 10:22:42;;;;;;;5.13;4.72;;;27.70;50.10;;;;;;5083547;28;20182;-87
2022/09/05 10:25:27;;;;;;;5.88;5.15;;;28.10;49.10;;;;;;5081994;28;20250;-87
2022/09/05 10:28:18;;;;;;;5.18;4.82;;;28.30;48.50;;;;;;5084733;28;20717;-86
2022/09/05 10:30:57;;;;;;;4.95;4.63;;;28.50;47.30;;;;;;5082610;28;20294;-86
2022/09/05 10:33:42;;;;;;;5.47;4.93;;;28.80;46.70;;;;;;5082471;28;20206;-87
2022/09/05 10:36:21;;;;;;;5.25;4.88;;;28.80;46.60;;;;;;5081177;28;20579;-86
2022/09/05 10:39:10;;;;;;;4.95;4.55;;;28.80;46.40;;;;;;5087087;28;20205;-87
2022/09/05 10:41:52;;;;;;;7.05;4.70;;;28.90;46.90;;;;;;5074208;28;20191;-84
2022/09/05 10:44:51;;;;;;;5.53;5.13;;;29.20;45.80;;;;;;5084928;28;20199;-84
2022/09/05 10:47:46;;;;;;;5.57;5.18;;;29.50;44.60;;;;;;5088538;28;20183;-88
2022/09/05 10:50:28;;;;;;;5.30;5.00;;;29.70;43.80;;;;;;5089220;28;20532;-87
2022/09/05 10:53:15;;;;;;;5.50;5.10;;;30.00;43.30;;;;;;5080746;28;20705;-86
2022/09/05 10:55:54;;;;;;;5.10;4.80;;;30.00;43.40;;;;;;5075815;28;20683;-87
2022/09/05 10:58:31;;;;;;;5.20;4.90;;;29.80;43.90;;;;;;5085169;28;20174;-87
2022/09/05 11:01:21;;;;;;;5.53;5.13;;;29.90;43.40;;;;;;5089883;28;20182;-86
2022/09/05 11:03:51;;;;;;;5.53;5.20;;;30.00;42.80;;;;;;5080960;28;20187;-87
2022/09/05 11:06:32;;;;;;;5.68;4.95;;;29.70;44.40;;;;;;5090470;28;20239;-88
2022/09/05 11:09:24;;;;;;;5.53;5.03;;;29.90;44.10;;;;;;5085082;28;20677;-91
2022/09/05 11:12:25;;;;;;;5.13;4.82;;;30.00;43.90;;;;;;5087233;28;20201;-87
2022/09/05 11:14:56;;;;;;;5.38;4.97;;;30.10;43.90;;;;;;5075889;28;20257;-89
2022/09/05 11:17:27;;;;;;;5.10;4.80;;;30.50;42.30;;;;;;5089114;28;20282;-89
2022/09/05 11:20:18;;;;;;;6.85;5.47;;;30.70;42.20;;;;;;5084156;28;20184;-88
2022/09/05 11:22:47;;;;;;;5.70;5.25;;;30.60;42.00;;;;;;5090456;28;20236;-89
2022/09/05 11:25:22;;;;;;;5.22;4.82;;;30.70;42.80;;;;;;5083429;28;20210;-87
2022/09/05 11:27:52;;;;;;;5.85;5.35;;;30.80;41.70;;;;;;5084549;28;20190;-88
2022/09/05 11:30:23;;;;;;;6.18;5.32;;;30.70;43.20;;;;;;5086951;28;20649;-90
2022/09/05 11:33:10;;;;;;;5.30;5.00;;;30.30;44.80;;;;;;5085173;28;20191;-91
2022/09/05 11:35:46;;;;;;;5.80;5.32;;;30.60;43.00;;;;;;5090502;28;20208;-89
2022/09/05 11:38:38;;;;;;;7.28;5.43;;;31.20;41.80;;;;;;5083271;28;20220;-89
2022/09/05 11:41:18;;;;;;;6.00;5.60;;;31.50;40.20;;;;;;5094348;28;20164;-88
2022/09/05 11:44:12;;;;;;;5.78;5.38;;;31.80;39.80;;;;;;5083282;28;20262;-88
2022/09/05 11:47:15;;;;;;;5.60;5.30;;;32.00;39.50;;;;;;5081595;28;20280;-88
2022/09/05 11:49:53;;;;;;;5.45;5.13;;;32.10;38.90;;;;;;5084129;28;20186;-88
2022/09/05 11:52:39;;;;;;;6.32;5.43;;;31.80;39.20;;;;;;5087477;28;20194;-88
2022/09/05 11:55:26;;;;;;;5.43;5.13;;;32.20;36.90;;;;;;5083020;28;20206;-88
2022/09/05 11:58:21;;;;;;;5.72;5.40;;;32.60;35.40;;;;;;5084225;28;20291;-87
2022/09/05 12:01:07;;;;;;;6.20;5.60;;;32.90;34.80;;;;;;5086066;28;20199;-88
2022/09/05 12:03:54;;;;;;;6.40;5.85;;;33.10;35.10;;;;;;5079155;28;20202;-88
2022/09/05 12:06:25;;;;;;;5.53;5.13;;;33.10;36.50;;;;;;5080048;28;20230;-88
2022/09/05 12:09:03;;;;;;;5.72;5.20;;;33.30;34.80;;;;;;5082320;28;20260;-88
2022/09/05 12:12:05;;;;;;;5.97;5.55;;;33.40;35.20;;;;;;5085209;28;20198;-88
2022/09/05 12:15:00;;;;;;;5.43;5.13;;;33.40;34.70;;;;;;5054775;28;20703;-88
2022/09/05 12:17:36;;;;;;;5.95;5.47;;;33.50;33.50;;;;;;5078046;28;20285;-88
2022/09/05 12:20:17;;;;;;;5.53;5.22;;;32.80;33.50;;;;;;5082810;28;20229;-88
2022/09/05 12:22:58;;;;;;;6.35;5.78;;;33.30;33.80;;;;;;5083396;28;20249;-88
2022/09/05 12:25:49;;;;;;;5.53;5.10;;;33.40;35.50;;;;;;5081917;28;20214;-88
2022/09/05 12:28:44;;;;;;;5.65;5.25;;;33.80;35.20;;;;;;5082363;28;20175;-89
2022/09/05 12:31:25;;;;;;;6.00;5.60;;;34.10;32.80;;;;;;5082392;28;20171;-89
2022/09/05 12:33:51;;;;;;;5.47;5.10;;;34.50;32.60;;;;;;5079981;28;20175;-89
2022/09/05 12:36:35;;;;;;;5.78;5.32;;;33.90;32.70;;;;;;5088722;28;20271;-89
2022/09/05 12:39:32;;;;;;;5.90;5.50;;;34.00;33.90;;;;;;5081771;28;20224;-89
2022/09/05 12:42:23;;;;;;;6.13;5.72;;;34.30;33.40;;;;;;5082568;28;20184;-89
2022/09/05 12:45:13;;;;;;;5.80;5.40;;;34.50;32.80;;;;;;5080577;28;20218;-89
2022/09/05 12:48:08;;;;;;;6.00;5.60;;;35.00;32.20;;;;;;5082023;28;20187;-89
2022/09/05 12:51:04;;;;;;;6.43;5.90;;;35.20;31.30;;;;;;5083347;28;20205;-89
2022/09/05 12:53:48;;;;;;;5.72;5.32;;;35.20;30.90;;;;;;5095504;28;20209;-89
2022/09/05 12:56:26;;;;;;;6.18;5.65;;;34.90;30.30;;;;;;5078898;28;20247;-87
2022/09/05 12:58:53;;;;;;;6.22;5.88;;;35.00;30.00;;;;;;5081025;28;20198;-87
2022/09/05 13:01:39;;;;;;;6.03;5.53;;;35.00;30.70;;;;;;5078817;28;20186;-87
2022/09/05 13:04:21;;;;;;;6.57;6.10;;;35.00;30.90;;;;;;5081391;28;20183;-86
2022/09/05 13:06:59;;;;;;;6.55;5.95;;;35.00;30.40;;;;;;5085477;28;20178;-87
2022/09/05 13:09:33;;;;;;;5.38;5.07;;;34.50;31.20;;;;;;5095362;28;20182;-84
2022/09/05 13:12:28;;;;;;;6.10;5.72;;;35.10;29.90;;;;;;5091434;28;20213;-87
2022/09/05 13:15:11;;;;;;;6.93;5.40;;;34.90;30.10;;;;;;5106097;28;20681;-89
2022/09/05 13:17:42;;;;;;;6.07;5.78;;;35.50;29.90;;;;;;5090246;28;20190;-88
2022/09/05 13:20:57;;;;;;;6.05;5.60;;;36.10;28.60;;;;;;5091890;28;20189;-88
2022/09/05 13:23:44;;;;;;;5.28;4.97;;;35.60;28.40;;;;;;5065644;28;20209;-88
2022/09/05 13:26:32;;;;;;;5.70;5.40;;;35.60;28.10;;;;;;5085967;28;20206;-88
2022/09/05 13:29:20;;;;;;;5.75;5.45;;;35.50;28.30;;;;;;5090098;28;20241;-88
2022/09/05 13:31:52;;;;;;;5.60;5.20;;;34.60;29.10;;;;;;5071637;28;20179;-87
2022/09/05 13:34:27;;;;;;;5.93;5.43;;;34.60;29.20;;;;;;5085766;28;20726;-87
2022/09/05 13:37:16;;;;;;;5.82;5.43;;;35.40;29.10;;;;;;5092317;28;20216;-87
2022/09/05 13:39:53;;;;;;;5.78;5.47;;;36.10;27.80;;;;;;5087838;28;20172;-87
2022/09/05 13:42:22;;;;;;;6.10;5.60;;;36.50;27.70;;;;;;5090353;28;20178;-87
2022/09/05 13:44:56;;;;;;;6.15;5.85;;;36.70;27.30;;;;;;5090877;28;20262;-87
2022/09/05 13:47:56;;;;;;;6.07;5.78;;;36.50;27.50;;;;;;5072699;28;20311;-87
2022/09/05 13:50:24;;;;;;;6.22;5.85;;;36.50;27.30;;;;;;5093450;28;20679;-87
2022/09/05 13:53:15;;;;;;;6.40;6.00;;;37.00;27.60;;;;;;5095158;28;20246;-87
2022/09/05 13:55:57;;;;;;;6.00;5.70;;;36.80;25.70;;;;;;5090486;28;20218;-87
2022/09/05 13:58:41;;;;;;;5.72;5.32;;;37.00;25.90;;;;;;5082777;28;20181;-87
2022/09/05 14:01:26;;;;;;;6.18;5.78;;;37.20;25.30;;;;;;5079619;28;20198;-86
2022/09/05 14:04:17;;;;;;;5.80;5.50;;;37.10;24.30;;;;;;5080739;28;20233;-87
2022/09/05 14:07:09;;;;;;;5.60;5.30;;;37.10;23.50;;;;;;5082609;28;20206;-87
2022/09/05 14:09:58;;;;;;;5.97;5.68;;;37.30;23.00;;;;;;5081142;28;20383;-87
2022/09/05 14:12:47;;;;;;;5.65;5.35;;;37.50;22.70;;;;;;5081251;28;20195;-86
2022/09/05 14:15:36;;;;;;;5.57;5.38;;;37.60;22.00;;;;;;5082321;28;20210;-86
2022/09/05 14:18:16;;;;;;;6.10;5.75;;;37.80;21.80;;;;;;5081162;28;20258;-87